Time;durP1;ratioP1;P1;durP2;ratioP2;P2;SDS_P1;SDS_P2;PMS_P1;PMS_P2;Temp;Humidity;BMP_temperature;BMP_pressure;BME280_temperature;BME280_humidity;BME280_pressure;Samples;Min_cycle;Max_cycle;Signal;HPM_P1;HPM_P2
2023/02/11 00:00:32;;;;;;;55.85;27.33;;;-0.20;76.20;;;;;;5026085;28;20103;-60
2023/02/11 00:02:58;;;;;;;48.80;26.17;;;-0.20;76.30;;;;;;5025345;28;20041;-57
2023/02/11 00:05:24;;;;;;;51.60;26.42;;;-0.20;76.20;;;;;;5029589;28;20041;-60
2023/02/11 00:07:49;;;;;;;53.72;27.42;;;-0.20;76.20;;;;;;5022245;28;20036;-57
2023/02/11 00:10:15;;;;;;;51.10;26.55;;;-0.20;76.20;;;;;;5026520;28;20045;-59
2023/02/11 00:12:42;;;;;;;53.08;25.80;;;-0.20;76.90;;;;;;5021730;28;20044;-56
2023/02/11 00:15:08;;;;;;;51.42;26.77;;;-0.30;76.00;;;;;;5026773;28;20080;-59
2023/02/11 00:17:34;;;;;;;53.58;27.60;;;-0.30;76.10;;;;;;5025418;28;20140;-59
2023/02/11 00:19:59;;;;;;;47.72;24.75;;;-0.30;76.00;;;;;;5027529;28;20128;-58
2023/02/11 00:22:25;;;;;;;53.05;25.95;;;-0.30;76.20;;;;;;5027985;28;20041;-57
2023/02/11 00:24:51;;;;;;;46.42;24.60;;;-0.30;76.50;;;;;;5030496;28;20412;-55
2023/02/11 00:27:16;;;;;;;49.85;25.02;;;-0.40;76.60;;;;;;5030670;28;20106;-57
2023/02/11 00:29:42;;;;;;;52.58;25.90;;;-0.40;76.70;;;;;;5031269;28;20046;-58
2023/02/11 00:32:08;;;;;;;46.67;25.35;;;-0.40;77.00;;;;;;5034146;28;20044;-58
2023/02/11 00:34:35;;;;;;;45.92;24.33;;;-0.40;77.00;;;;;;5033715;28;20033;-57
2023/02/11 00:37:01;;;;;;;50.22;25.80;;;-0.50;76.90;;;;;;5032962;28;20619;-58
2023/02/11 00:39:27;;;;;;;48.30;25.23;;;-0.50;76.90;;;;;;5033769;28;20053;-58
2023/02/11 00:41:52;;;;;;;48.15;24.48;;;-0.50;76.90;;;;;;5031589;28;20033;-59
2023/02/11 00:44:18;;;;;;;46.60;24.55;;;-0.50;76.90;;;;;;5025626;28;20037;-58
2023/02/11 00:46:44;;;;;;;56.00;26.55;;;-0.60;76.70;;;;;;5027609;28;20025;-58
2023/02/11 00:49:09;;;;;;;52.50;26.75;;;-0.60;77.10;;;;;;5027842;28;20026;-58
2023/02/11 00:51:35;;;;;;;57.92;27.50;;;-0.60;77.30;;;;;;5036850;28;20041;-57
2023/02/11 00:54:01;;;;;;;69.25;29.35;;;-0.70;77.60;;;;;;5037379;28;20171;-58
2023/02/11 00:56:26;;;;;;;60.67;28.13;;;-0.70;77.80;;;;;;5037375;28;20580;-59
2023/02/11 00:58:52;;;;;;;59.60;28.05;;;-0.70;78.10;;;;;;5029674;28;20084;-59
2023/02/11 01:01:18;;;;;;;54.38;26.45;;;-0.70;78.20;;;;;;5026215;28;20037;-58
2023/02/11 01:03:44;;;;;;;59.25;27.27;;;-0.70;78.00;;;;;;5023380;28;20060;-60
2023/02/11 01:06:10;;;;;;;53.72;26.38;;;-0.70;77.80;;;;;;5026767;28;20033;-56
2023/02/11 01:08:36;;;;;;;51.42;25.15;;;-0.70;77.50;;;;;;5028597;28;20052;-55
2023/02/11 01:11:05;;;;;;;49.97;25.00;;;-0.70;77.30;;;;;;5021905;28;20595;-58
2023/02/11 01:13:33;;;;;;;48.17;24.10;;;-0.70;77.20;;;;;;5023445;28;20044;-55
2023/02/11 01:15:59;;;;;;;48.10;25.00;;;-0.80;77.30;;;;;;5024643;28;20128;-57
2023/02/11 01:18:26;;;;;;;55.20;27.08;;;-0.80;77.20;;;;;;5030309;28;20131;-58
2023/02/11 01:20:52;;;;;;;49.83;25.25;;;-0.80;77.10;;;;;;5022296;28;20455;-58
2023/02/11 01:23:18;;;;;;;52.22;26.35;;;-0.80;77.20;;;;;;5028704;28;20459;-58
2023/02/11 01:25:44;;;;;;;49.85;25.65;;;-0.90;77.10;;;;;;5022076;28;20075;-56
2023/02/11 01:28:23;;;;;;;51.53;26.30;;;-0.90;77.10;;;;;;5029569;28;20038;-59
2023/02/11 01:30:49;;;;;;;48.13;24.77;;;-0.90;77.40;;;;;;5020054;28;20057;-57
2023/02/11 01:33:16;;;;;;;49.42;25.48;;;-0.90;77.40;;;;;;5027315;28;20500;-59
2023/02/11 01:35:42;;;;;;;53.00;26.25;;;-0.90;77.60;;;;;;5020249;28;20034;-58
2023/02/11 01:38:18;;;;;;;52.47;26.45;;;-0.90;77.60;;;;;;5026502;28;20036;-58
2023/02/11 01:40:54;;;;;;;50.42;25.60;;;-0.90;77.80;;;;;;5023364;28;20043;-60
2023/02/11 01:43:21;;;;;;;51.45;26.30;;;-1.00;77.80;;;;;;5026144;28;20084;-59
2023/02/11 01:45:47;;;;;;;53.78;26.77;;;-1.00;77.60;;;;;;5024902;28;20371;-57
2023/02/11 01:48:17;;;;;;;53.33;25.42;;;-1.00;77.50;;;;;;5024717;28;20049;-58
2023/02/11 01:50:47;;;;;;;49.13;26.42;;;-1.00;77.60;;;;;;5023262;28;20044;-57
2023/02/11 01:58:52;;;;;;;52.35;25.73;;;-1.00;77.40;;;;;;5021814;28;20103;-58
2023/02/11 02:01:24;;;;;;;53.45;25.90;;;-1.10;77.30;;;;;;5018659;28;20030;-54
2023/02/11 02:03:54;;;;;;;51.33;25.58;;;-1.10;77.40;;;;;;5022713;28;20030;-58
2023/02/11 02:06:28;;;;;;;51.10;26.35;;;-1.20;77.40;;;;;;5021880;28;20069;-56
2023/02/11 02:09:08;;;;;;;49.17;25.02;;;-1.20;77.60;;;;;;5027757;28;20511;-58
2023/02/11 02:11:34;;;;;;;45.88;25.27;;;-1.20;78.00;;;;;;5021391;28;20037;-59
2023/02/11 02:13:59;;;;;;;50.95;26.17;;;-1.20;78.00;;;;;;5025934;28;20449;-59
2023/02/11 02:16:33;;;;;;;54.85;26.95;;;-1.20;78.10;;;;;;5025464;28;20117;-58
2023/02/11 02:19:34;;;;;;;53.50;27.00;;;-1.10;78.50;;;;;;5025293;28;20047;-58
2023/02/11 02:22:29;;;;;;;47.15;24.85;;;-1.10;78.50;;;;;;5015503;28;20034;-57
2023/02/11 02:25:19;;;;;;;47.35;25.27;;;-1.10;78.70;;;;;;5027589;28;20136;-59
2023/02/11 02:27:52;;;;;;;49.58;25.60;;;-1.10;78.50;;;;;;5022723;28;20493;-58
2023/02/11 02:30:30;;;;;;;57.33;27.47;;;-1.10;78.60;;;;;;5034430;28;20409;-58
2023/02/11 02:33:34;;;;;;;48.55;24.38;;;-1.10;78.50;;;;;;5035708;28;20263;-58
2023/02/11 02:36:32;;;;;;;51.42;24.90;;;-1.10;78.80;;;;;;5030962;28;20033;-58
2023/02/11 02:39:12;;;;;;;51.60;25.95;;;-1.10;79.70;;;;;;5027582;28;20064;-58
2023/02/11 02:41:39;;;;;;;52.90;26.35;;;-1.10;78.90;;;;;;5029446;28;20638;-55
2023/02/11 02:44:06;;;;;;;52.10;25.88;;;-1.00;78.80;;;;;;5019131;28;20030;-59
2023/02/11 02:46:33;;;;;;;51.50;27.00;;;-1.00;79.00;;;;;;5016755;28;20590;-57
2023/02/11 02:48:59;;;;;;;53.63;27.65;;;-1.00;79.10;;;;;;5024945;28;20040;-61
2023/02/11 02:51:43;;;;;;;59.08;29.55;;;-1.00;79.20;;;;;;5030061;28;20030;-57
2023/02/11 02:54:47;;;;;;;55.08;28.13;;;-0.90;79.50;;;;;;5018267;28;21381;-59
2023/02/11 02:57:15;;;;;;;50.45;27.40;;;-0.90;79.60;;;;;;5030263;28;20471;-57
2023/02/11 03:00:12;;;;;;;50.05;25.55;;;-0.90;79.20;;;;;;5032842;28;20037;-58
2023/02/11 03:02:57;;;;;;;50.13;26.90;;;-0.90;79.30;;;;;;5022962;28;20037;-60
2023/02/11 03:05:33;;;;;;;51.05;26.02;;;-0.90;79.10;;;;;;5024647;28;20045;-58
2023/02/11 03:08:13;;;;;;;52.20;26.65;;;-0.90;79.00;;;;;;5019809;28;20073;-58
2023/02/11 03:10:46;;;;;;;56.58;27.88;;;-0.90;78.90;;;;;;5024050;28;20389;-59
2023/02/11 03:13:15;;;;;;;52.28;26.95;;;-0.90;79.70;;;;;;5029633;28;20034;-56
2023/02/11 03:15:46;;;;;;;50.50;26.50;;;-0.90;78.80;;;;;;5023590;28;20578;-56
2023/02/11 03:18:15;;;;;;;54.83;26.95;;;-0.90;78.80;;;;;;5018919;28;20056;-56
2023/02/11 03:20:46;;;;;;;50.05;26.23;;;-0.90;78.80;;;;;;5021012;28;21007;-60
2023/02/11 03:23:38;;;;;;;55.72;27.70;;;-0.90;78.80;;;;;;5028635;28;20117;-58
2023/02/11 03:26:19;;;;;;;53.70;26.42;;;-0.90;79.10;;;;;;5021245;28;20033;-56
2023/02/11 03:29:21;;;;;;;52.92;27.25;;;-0.90;79.00;;;;;;5026332;28;20065;-59
2023/02/11 03:32:37;;;;;;;52.05;27.13;;;-0.90;79.40;;;;;;5005081;28;20041;-59
2023/02/11 03:35:07;;;;;;;49.67;26.83;;;-0.90;79.70;;;;;;5016557;28;20088;-59
2023/02/11 03:37:35;;;;;;;48.72;25.48;;;-0.90;79.20;;;;;;5026933;28;20094;-58
2023/02/11 03:40:10;;;;;;;51.08;26.40;;;-0.90;79.20;;;;;;5025865;28;20099;-59
2023/02/11 03:42:59;;;;;;;50.60;25.88;;;-0.90;79.30;;;;;;5024624;28;20041;-59
2023/02/11 03:45:26;;;;;;;54.75;27.02;;;-0.90;79.30;;;;;;5020788;28;20049;-59
2023/02/11 03:48:14;;;;;;;47.38;26.10;;;-1.00;79.20;;;;;;5025782;28;20045;-59
2023/02/11 03:50:41;;;;;;;50.63;26.02;;;-0.90;79.30;;;;;;5025833;28;20112;-57
2023/02/11 03:53:08;;;;;;;45.65;23.40;;;-0.90;79.10;;;;;;5025761;28;20064;-57
2023/02/11 03:55:37;;;;;;;49.72;24.85;;;-1.00;79.10;;;;;;5027038;28;20040;-54
2023/02/11 03:58:03;;;;;;;49.55;26.48;;;-0.90;79.30;;;;;;5026586;28;20076;-57
2023/02/11 04:00:34;;;;;;;52.03;26.25;;;-0.90;79.20;;;;;;5036452;28;20609;-57
2023/02/11 04:02:59;;;;;;;47.72;24.17;;;-0.90;79.20;;;;;;5037838;28;20040;-60
2023/02/11 04:05:25;;;;;;;51.15;24.85;;;-0.90;79.20;;;;;;5032460;28;20033;-56
2023/02/11 04:07:51;;;;;;;49.45;24.58;;;-0.90;79.20;;;;;;5030105;28;20610;-58
2023/02/11 04:10:16;;;;;;;49.25;26.30;;;-0.90;79.30;;;;;;5033768;28;20128;-58
2023/02/11 04:12:42;;;;;;;50.85;25.98;;;-0.90;79.30;;;;;;5023963;28;20033;-56
2023/02/11 04:15:08;;;;;;;49.50;26.02;;;-0.90;79.30;;;;;;5031000;28;20033;-57
2023/02/11 04:17:34;;;;;;;45.25;23.45;;;-0.80;79.30;;;;;;5030315;28;20091;-58
2023/02/11 04:19:59;;;;;;;47.17;24.80;;;-0.90;79.10;;;;;;5027589;28;20037;-59
2023/02/11 04:22:25;;;;;;;53.35;25.48;;;-0.90;79.20;;;;;;5030757;28;20113;-55
2023/02/11 04:24:51;;;;;;;50.53;26.30;;;-0.80;79.20;;;;;;5031606;28;20378;-56
2023/02/11 04:27:16;;;;;;;50.80;25.90;;;-0.80;79.20;;;;;;5028091;28;20124;-55
2023/02/11 04:29:42;;;;;;;53.08;25.23;;;-0.80;79.40;;;;;;5028514;28;20041;-58
2023/02/11 04:32:09;;;;;;;51.90;26.75;;;-0.80;79.10;;;;;;5030687;28;20046;-57
2023/02/11 04:34:34;;;;;;;55.97;26.38;;;-0.80;79.30;;;;;;5030658;28;20037;-60
2023/02/11 04:37:00;;;;;;;51.88;25.70;;;-0.80;79.40;;;;;;5028401;28;20048;-59
2023/02/11 04:39:25;;;;;;;49.92;25.35;;;-0.80;79.60;;;;;;5029311;28;20057;-57
2023/02/11 04:41:51;;;;;;;45.58;24.33;;;-0.80;79.60;;;;;;5027153;28;20140;-57
2023/02/11 04:44:16;;;;;;;49.03;25.30;;;-0.80;79.50;;;;;;5029685;28;20662;-58
2023/02/11 04:46:42;;;;;;;46.63;24.95;;;-0.80;79.50;;;;;;5027710;28;20067;-60
2023/02/11 04:49:14;;;;;;;41.78;22.85;;;-0.80;79.40;;;;;;5026671;28;20037;-60
2023/02/11 04:51:40;;;;;;;48.88;25.30;;;-0.80;79.40;;;;;;5032164;28;20032;-57
2023/02/11 04:54:05;;;;;;;47.13;25.15;;;-0.70;79.30;;;;;;5030828;28;20045;-58
2023/02/11 04:56:31;;;;;;;53.00;28.45;;;-0.70;79.30;;;;;;5030135;28;20435;-59
2023/02/11 04:58:56;;;;;;;55.08;27.85;;;-0.70;79.20;;;;;;5018762;28;20313;-58
2023/02/11 05:01:22;;;;;;;55.38;28.05;;;-0.70;79.20;;;;;;5020469;28;20038;-57
2023/02/11 05:03:48;;;;;;;52.80;27.20;;;-0.70;79.30;;;;;;5022345;28;20039;-57
2023/02/11 05:06:13;;;;;;;48.17;25.42;;;-0.70;79.20;;;;;;5022174;28;20040;-54
2023/02/11 05:08:39;;;;;;;49.85;25.90;;;-0.70;79.30;;;;;;5022903;28;20042;-59
2023/02/11 05:11:05;;;;;;;49.17;25.83;;;-0.70;79.20;;;;;;5014266;28;20556;-57
2023/02/11 05:13:31;;;;;;;50.67;26.38;;;-0.70;79.20;;;;;;5022438;28;20036;-58
2023/02/11 05:15:56;;;;;;;52.15;26.42;;;-0.70;79.10;;;;;;5016297;28;20029;-57
2023/02/11 05:18:22;;;;;;;55.72;27.35;;;-0.70;79.20;;;;;;5022813;28;20037;-58
2023/02/11 05:20:48;;;;;;;50.85;25.88;;;-0.70;79.20;;;;;;5021354;28;20409;-55
2023/02/11 05:23:13;;;;;;;46.72;24.60;;;-0.70;79.50;;;;;;5024458;28;20401;-57
2023/02/11 05:25:39;;;;;;;50.45;26.25;;;-0.70;79.70;;;;;;5019137;28;20045;-59
2023/02/11 05:28:05;;;;;;;51.70;27.58;;;-0.70;79.70;;;;;;5021276;28;20029;-57
2023/02/11 05:30:30;;;;;;;51.13;26.90;;;-0.70;79.50;;;;;;5036160;28;20041;-57
2023/02/11 05:32:56;;;;;;;51.33;26.45;;;-0.70;79.50;;;;;;5027066;28;20033;-58
2023/02/11 05:35:22;;;;;;;49.00;25.40;;;-0.70;79.40;;;;;;5028724;28;20080;-59
2023/02/11 05:37:48;;;;;;;48.95;26.08;;;-0.70;79.30;;;;;;5035166;28;20072;-59
2023/02/11 05:40:13;;;;;;;50.78;26.33;;;-0.70;79.30;;;;;;5037123;28;20045;-59
2023/02/11 05:42:39;;;;;;;53.05;26.73;;;-0.60;79.30;;;;;;5031114;28;20133;-60
2023/02/11 05:45:05;;;;;;;56.15;28.83;;;-0.60;80.20;;;;;;5026089;28;20400;-58
2023/02/11 05:47:30;;;;;;;51.92;27.98;;;-0.60;79.40;;;;;;5030366;28;20117;-57
2023/02/11 05:49:56;;;;;;;56.05;28.85;;;-0.60;79.50;;;;;;5034558;28;20026;-58
2023/02/11 05:52:23;;;;;;;55.42;28.48;;;-0.50;79.70;;;;;;5036081;28;20059;-58
2023/02/11 05:54:49;;;;;;;53.33;28.30;;;-0.50;79.90;;;;;;5035841;28;20033;-58
2023/02/11 05:57:15;;;;;;;55.55;28.23;;;-0.50;79.90;;;;;;5036436;28;20041;-58
2023/02/11 05:59:41;;;;;;;52.85;28.80;;;-0.50;79.90;;;;;;5036526;28;20030;-59
2023/02/11 06:02:06;;;;;;;52.30;26.50;;;-0.40;80.00;;;;;;5036642;28;20067;-59
2023/02/11 06:04:33;;;;;;;54.53;28.50;;;-0.40;80.10;;;;;;5033918;28;20456;-58
2023/02/11 06:06:59;;;;;;;49.17;28.05;;;-0.40;80.20;;;;;;5028933;28;20159;-57
2023/02/11 06:09:25;;;;;;;56.53;28.05;;;-0.40;80.20;;;;;;5030659;28;20185;-58
2023/02/11 06:11:50;;;;;;;51.42;27.40;;;-0.40;80.40;;;;;;5024346;28;20124;-58
2023/02/11 06:14:16;;;;;;;49.65;25.58;;;-0.30;80.40;;;;;;5030455;28;20036;-57
2023/02/11 06:16:41;;;;;;;55.28;27.88;;;-0.30;80.40;;;;;;5028109;28;20041;-56
2023/02/11 06:19:07;;;;;;;55.17;27.48;;;-0.20;80.50;;;;;;5026863;28;20029;-58
2023/02/11 06:21:33;;;;;;;47.28;25.55;;;-0.20;80.40;;;;;;5027962;28;20409;-59
2023/02/11 06:23:58;;;;;;;54.33;27.65;;;-0.20;80.40;;;;;;5029340;28;20065;-54
2023/02/11 06:26:24;;;;;;;51.30;26.65;;;-0.20;80.40;;;;;;5024270;28;20033;-59
2023/02/11 06:28:50;;;;;;;50.00;26.88;;;-0.10;80.50;;;;;;5029008;28;20057;-55
2023/02/11 06:31:16;;;;;;;52.58;26.60;;;-0.10;80.60;;;;;;5027044;28;20565;-57
2023/02/11 06:33:42;;;;;;;52.33;25.67;;;-0.10;80.40;;;;;;5031111;28;20325;-58
2023/02/11 06:36:14;;;;;;;58.92;28.27;;;-0.10;80.40;;;;;;5027240;28;20095;-55
2023/02/11 06:38:40;;;;;;;52.85;26.70;;;-0.10;80.50;;;;;;5028094;28;20038;-59
2023/02/11 06:41:07;;;;;;;45.35;24.75;;;-0.10;80.40;;;;;;5027706;28;20040;-55
2023/02/11 06:43:33;;;;;;;54.13;27.08;;;-0.10;80.30;;;;;;5015125;28;20432;-57
2023/02/11 06:45:58;;;;;;;48.28;26.10;;;0.00;80.20;;;;;;5018655;28;20030;-55
2023/02/11 06:48:24;;;;;;;51.72;26.40;;;0.00;80.20;;;;;;5020885;28;20038;-55
2023/02/11 06:50:49;;;;;;;53.55;26.65;;;0.00;80.10;;;;;;5021392;28;20521;-56
2023/02/11 06:53:15;;;;;;;53.17;28.60;;;0.00;80.10;;;;;;5020760;28;20056;-55
2023/02/11 06:55:41;;;;;;;55.20;28.45;;;0.00;80.10;;;;;;5017087;28;20748;-58
2023/02/11 06:58:06;;;;;;;51.92;26.92;;;0.10;80.20;;;;;;5019022;28;20045;-55
2023/02/11 07:00:32;;;;;;;49.55;26.52;;;0.10;80.30;;;;;;5013956;28;20036;-57
2023/02/11 07:02:57;;;;;;;49.65;26.50;;;0.10;80.40;;;;;;5019386;28;20151;-59
2023/02/11 07:05:23;;;;;;;57.58;28.63;;;0.10;80.60;;;;;;5020537;28;20241;-55
2023/02/11 07:07:48;;;;;;;54.55;28.65;;;0.10;80.70;;;;;;5026463;28;20058;-57
2023/02/11 07:10:14;;;;;;;50.78;27.42;;;0.20;80.70;;;;;;5022437;28;20042;-57
2023/02/11 07:12:40;;;;;;;48.67;26.92;;;0.20;80.80;;;;;;5024182;28;20033;-57
2023/02/11 07:15:06;;;;;;;50.30;26.55;;;0.30;81.00;;;;;;5034008;28;20034;-57
2023/02/11 07:17:33;;;;;;;49.15;26.25;;;0.30;80.90;;;;;;5032618;28;20413;-59
2023/02/11 07:19:59;;;;;;;50.75;27.15;;;0.30;81.10;;;;;;5028372;28;20080;-57
2023/02/11 07:22:24;;;;;;;48.92;26.73;;;0.40;81.10;;;;;;5026474;28;20033;-58
2023/02/11 07:24:50;;;;;;;49.17;26.75;;;0.40;81.20;;;;;;5029370;28;20032;-58
2023/02/11 07:27:16;;;;;;;51.97;27.50;;;0.40;81.30;;;;;;5026280;28;20038;-58
2023/02/11 07:29:42;;;;;;;46.92;25.08;;;0.50;81.40;;;;;;5022029;28;20120;-57
2023/02/11 07:32:07;;;;;;;48.65;27.67;;;0.50;81.40;;;;;;5029610;28;20705;-57
2023/02/11 07:34:33;;;;;;;87.20;39.35;;;0.50;81.50;;;;;;5022941;28;20037;-57
2023/02/11 07:36:58;;;;;;;75.22;36.65;;;0.60;81.60;;;;;;5025587;28;20072;-60
2023/02/11 07:39:26;;;;;;;74.53;33.60;;;0.60;81.60;;;;;;5034529;28;20570;-58
2023/02/11 07:41:52;;;;;;;78.53;36.38;;;0.70;81.80;;;;;;5034014;28;20112;-58
2023/02/11 07:44:18;;;;;;;83.65;39.40;;;0.70;81.80;;;;;;5038905;28;20025;-58
2023/02/11 07:46:44;;;;;;;84.15;43.00;;;0.70;81.70;;;;;;5035606;28;20520;-57
2023/02/11 07:49:11;;;;;;;64.65;33.13;;;0.80;81.70;;;;;;5034069;28;20448;-60
2023/02/11 07:51:36;;;;;;;56.58;31.17;;;0.80;81.70;;;;;;5030384;28;20025;-60
2023/02/11 07:54:02;;;;;;;62.33;33.05;;;0.90;81.70;;;;;;5019565;28;20448;-54
2023/02/11 07:56:28;;;;;;;74.00;38.08;;;0.90;81.80;;;;;;5024385;28;20041;-56
2023/02/11 07:58:55;;;;;;;72.50;38.08;;;0.90;81.80;;;;;;5021930;28;20052;-60
2023/02/11 08:01:27;;;;;;;60.33;32.90;;;1.00;81.80;;;;;;5025466;28;20045;-57
2023/02/11 08:03:54;;;;;;;61.00;32.10;;;1.00;81.80;;;;;;5014067;28;21071;-58
2023/02/11 08:06:21;;;;;;;60.47;33.90;;;1.10;81.90;;;;;;5018821;28;20041;-60
2023/02/11 08:08:48;;;;;;;65.00;36.10;;;1.10;81.90;;;;;;5020006;28;20070;-60
2023/02/11 08:11:15;;;;;;;64.85;34.90;;;1.20;82.00;;;;;;5017454;28;20410;-60
2023/02/11 08:13:41;;;;;;;64.55;34.35;;;1.20;82.00;;;;;;5017102;28;20090;-58
2023/02/11 08:16:17;;;;;;;62.40;33.80;;;1.20;82.10;;;;;;5018306;28;20571;-55
2023/02/11 08:18:43;;;;;;;61.35;32.20;;;1.20;82.00;;;;;;5020416;28;20436;-58
2023/02/11 08:21:09;;;;;;;57.13;31.25;;;1.30;82.10;;;;;;5031247;28;20040;-57
2023/02/11 08:23:40;;;;;;;57.33;31.00;;;1.30;82.10;;;;;;5020119;28;20215;-59
2023/02/11 08:26:09;;;;;;;57.22;31.58;;;1.40;82.30;;;;;;5025360;28;20117;-58
2023/02/11 08:28:36;;;;;;;55.38;30.00;;;1.40;82.10;;;;;;5023834;28;20033;-60
2023/02/11 08:31:07;;;;;;;51.58;28.20;;;1.50;82.10;;;;;;5024139;28;20037;-60
2023/02/11 08:33:33;;;;;;;53.05;30.50;;;1.60;82.10;;;;;;5023819;28;20746;-60
2023/02/11 08:35:59;;;;;;;60.88;32.20;;;1.60;81.80;;;;;;5019293;28;20476;-59
2023/02/11 08:38:24;;;;;;;58.88;32.47;;;1.70;81.80;;;;;;5021728;28;20037;-56
2023/02/11 08:40:50;;;;;;;53.38;30.52;;;1.70;81.70;;;;;;5015019;28;20044;-58
2023/02/11 08:43:16;;;;;;;60.33;33.15;;;1.80;81.80;;;;;;5024749;28;20134;-56
2023/02/11 08:45:41;;;;;;;56.72;32.22;;;1.80;81.80;;;;;;5023776;28;20124;-59
2023/02/11 08:48:07;;;;;;;63.70;35.30;;;1.90;81.90;;;;;;5026336;28;20032;-60
2023/02/11 08:50:33;;;;;;;64.40;36.17;;;2.00;82.00;;;;;;5024157;28;20073;-57
2023/02/11 08:52:59;;;;;;;61.05;34.95;;;2.10;82.10;;;;;;5019346;28;20036;-55
2023/02/11 08:55:24;;;;;;;64.50;34.33;;;2.10;81.90;;;;;;5025721;28;20045;-57
2023/02/11 08:57:50;;;;;;;60.83;32.97;;;2.30;81.70;;;;;;5030362;28;20043;-56
2023/02/11 09:00:17;;;;;;;57.50;32.08;;;2.30;81.60;;;;;;5020272;28;20169;-57
2023/02/11 09:02:43;;;;;;;58.42;32.47;;;2.40;81.60;;;;;;5024336;28;20037;-60
2023/02/11 09:05:08;;;;;;;58.38;32.97;;;2.50;81.30;;;;;;5028851;28;20052;-59
2023/02/11 09:07:34;;;;;;;58.10;32.08;;;2.60;81.10;;;;;;5025795;28;20037;-59
2023/02/11 09:09:59;;;;;;;56.05;32.30;;;2.60;81.10;;;;;;5021786;28;20373;-60
2023/02/11 09:12:25;;;;;;;55.80;32.47;;;2.70;81.10;;;;;;5020257;28;20033;-60
2023/02/11 09:14:50;;;;;;;59.03;32.50;;;2.70;81.00;;;;;;5025860;28;20029;-60
2023/02/11 09:17:16;;;;;;;60.88;34.72;;;2.80;80.90;;;;;;5026333;28;20093;-58
2023/02/11 09:19:41;;;;;;;60.95;33.50;;;2.90;80.90;;;;;;5027952;28;20072;-59
2023/02/11 09:22:07;;;;;;;62.83;34.42;;;2.90;80.70;;;;;;5024582;28;20022;-57
2023/02/11 09:24:33;;;;;;;57.65;32.70;;;3.00;80.70;;;;;;5019836;28;20047;-58
2023/02/11 09:26:58;;;;;;;59.28;33.67;;;3.00;80.60;;;;;;5021485;28;20036;-58
2023/02/11 09:29:24;;;;;;;54.17;31.67;;;3.10;80.60;;;;;;5024335;28;20025;-58
2023/02/11 09:31:49;;;;;;;54.47;31.23;;;3.20;80.70;;;;;;5022789;28;20766;-59
2023/02/11 09:34:15;;;;;;;52.17;30.02;;;3.20;80.70;;;;;;5021287;28;20034;-56
2023/02/11 09:36:41;;;;;;;58.35;31.38;;;3.30;80.50;;;;;;5023954;28;20444;-58
2023/02/11 09:39:11;;;;;;;56.85;32.72;;;3.40;80.20;;;;;;5028984;28;20036;-58
2023/02/11 09:42:07;;;;;;;57.58;33.65;;;3.40;79.90;;;;;;5030718;28;20033;-59
2023/02/11 09:44:35;;;;;;;55.00;30.95;;;3.50;79.50;;;;;;5024083;28;20030;-58
2023/02/11 09:47:27;;;;;;;57.75;32.03;;;3.60;79.60;;;;;;5024735;28;20587;-60
2023/02/11 09:50:03;;;;;;;58.47;31.95;;;3.60;79.70;;;;;;5024587;28;20055;-56
2023/02/11 09:52:38;;;;;;;57.42;32.53;;;3.60;79.60;;;;;;5024254;28;20053;-59
2023/02/11 09:55:30;;;;;;;55.30;32.22;;;3.70;79.50;;;;;;5020064;28;20045;-56
2023/02/11 09:57:57;;;;;;;52.85;30.55;;;3.70;79.30;;;;;;5029256;28;20199;-58
2023/02/11 10:00:31;;;;;;;55.50;31.42;;;3.70;79.30;;;;;;5019219;28;20029;-59
2023/02/11 10:03:27;;;;;;;57.30;30.43;;;3.80;79.50;;;;;;5026894;28;20086;-60
2023/02/11 10:06:12;;;;;;;53.28;30.73;;;3.80;79.60;;;;;;5021943;28;20033;-60
2023/02/11 10:09:11;;;;;;;52.50;30.00;;;3.90;79.70;;;;;;5033465;28;20037;-59
2023/02/11 10:11:56;;;;;;;57.72;30.98;;;3.90;79.50;;;;;;5030222;28;20479;-59
2023/02/11 10:14:37;;;;;;;53.90;30.65;;;4.00;78.60;;;;;;5030266;28;20049;-59
2023/02/11 10:17:18;;;;;;;51.00;28.50;;;4.00;78.60;;;;;;5029914;28;20397;-60
2023/02/11 10:19:52;;;;;;;51.85;30.02;;;4.10;78.30;;;;;;5032127;28;20392;-58
2023/02/11 10:22:24;;;;;;;51.10;28.98;;;4.20;78.30;;;;;;5033844;28;20029;-59
2023/02/11 10:24:57;;;;;;;54.72;30.50;;;4.30;78.20;;;;;;5029240;28;20025;-58
2023/02/11 10:27:32;;;;;;;48.33;29.17;;;4.30;78.10;;;;;;5028433;28;20404;-61
2023/02/11 10:30:10;;;;;;;49.00;28.80;;;4.40;77.80;;;;;;5029875;28;20400;-58
2023/02/11 10:33:06;;;;;;;48.55;28.42;;;4.40;77.60;;;;;;5029370;28;20505;-60
2023/02/11 10:35:32;;;;;;;48.42;27.33;;;4.50;77.10;;;;;;5029667;28;20047;-61
2023/02/11 10:37:58;;;;;;;53.05;29.63;;;4.60;77.40;;;;;;5028419;28;20057;-61
2023/02/11 10:40:27;;;;;;;52.13;29.95;;;4.60;77.20;;;;;;5031507;28;20033;-62
2023/02/11 10:42:57;;;;;;;50.85;29.08;;;4.70;77.20;;;;;;5030915;28;20033;-61
2023/02/11 10:45:31;;;;;;;50.10;28.23;;;4.70;77.20;;;;;;5031372;28;20038;-59
2023/02/11 10:47:58;;;;;;;47.95;27.80;;;4.80;76.80;;;;;;5033421;28;20040;-56
2023/02/11 10:50:28;;;;;;;54.08;29.73;;;4.80;76.90;;;;;;5032955;28;20489;-61
2023/02/11 10:53:11;;;;;;;49.75;27.13;;;4.90;76.60;;;;;;5032383;28;20485;-59
2023/02/11 10:55:37;;;;;;;47.22;27.85;;;4.90;75.70;;;;;;5033253;28;20080;-57
2023/02/11 10:58:04;;;;;;;57.10;26.65;;;5.00;75.70;;;;;;5030094;28;20116;-61
2023/02/11 11:00:39;;;;;;;45.00;25.85;;;5.10;75.60;;;;;;5026575;28;20041;-60
2023/02/11 11:03:24;;;;;;;42.20;24.63;;;5.10;75.50;;;;;;5027310;28;20041;-61
2023/02/11 11:06:01;;;;;;;44.35;24.00;;;5.20;75.30;;;;;;5020540;28;20045;-60
2023/02/11 11:08:50;;;;;;;45.40;23.38;;;5.20;75.50;;;;;;5024982;28;20556;-61
2023/02/11 11:11:21;;;;;;;40.08;22.33;;;5.30;74.70;;;;;;5024803;28;20033;-60
2023/02/11 11:13:52;;;;;;;39.88;22.73;;;5.30;75.10;;;;;;5032217;28;20047;-61
2023/02/11 11:16:29;;;;;;;38.92;22.98;;;5.40;75.00;;;;;;5038206;28;20532;-59
2023/02/11 11:19:06;;;;;;;38.53;22.70;;;5.50;74.60;;;;;;5039388;28;20456;-60
2023/02/11 11:21:47;;;;;;;39.35;21.80;;;5.60;74.30;;;;;;5039393;28;20167;-61
2023/02/11 11:24:17;;;;;;;37.13;22.08;;;5.60;74.10;;;;;;5038660;28;20112;-60
2023/02/11 11:26:47;;;;;;;38.28;23.08;;;5.70;74.00;;;;;;5039540;28;20249;-62
2023/02/11 11:29:27;;;;;;;37.80;22.70;;;5.70;73.90;;;;;;5039586;28;20034;-60
2023/02/11 11:31:56;;;;;;;42.67;22.48;;;5.80;73.60;;;;;;5039580;28;20041;-61
2023/02/11 11:34:37;;;;;;;37.20;23.15;;;5.90;73.40;;;;;;5039419;28;20467;-62
2023/02/11 11:37:22;;;;;;;37.95;23.50;;;5.90;73.30;;;;;;5038661;28;20476;-62
2023/02/11 11:40:01;;;;;;;40.95;22.83;;;6.00;73.30;;;;;;5039401;28;20037;-62
2023/02/11 11:42:37;;;;;;;36.30;20.92;;;6.10;73.00;;;;;;5039049;28;20037;-61
2023/02/11 11:45:23;;;;;;;35.35;21.15;;;6.20;72.90;;;;;;5036085;28;20034;-62
2023/02/11 11:48:05;;;;;;;36.30;21.17;;;6.30;72.50;;;;;;5032338;28;20025;-62
2023/02/11 11:50:47;;;;;;;37.28;21.33;;;6.40;72.40;;;;;;5035030;28;20033;-61
2023/02/11 11:53:27;;;;;;;36.83;22.05;;;6.50;72.40;;;;;;5037184;28;20062;-61
2023/02/11 11:56:13;;;;;;;35.17;19.92;;;6.60;72.00;;;;;;5033501;28;20037;-61
2023/02/11 11:58:39;;;;;;;35.15;20.13;;;6.70;72.00;;;;;;5037077;28;20037;-62
2023/02/11 12:01:34;;;;;;;38.97;22.83;;;6.80;72.10;;;;;;5035368;28;20393;-61
2023/02/11 12:04:26;;;;;;;;;;;6.90;71.10;;;;;;5033908;28;20544;-62
2023/02/11 12:07:00;;;;;;;32.30;20.08;;;6.90;71.30;;;;;;5036701;28;19919;-62
2023/02/11 12:10:00;;;;;;;35.78;21.67;;;6.90;71.40;;;;;;5034701;28;20033;-62
2023/02/11 12:13:02;;;;;;;36.80;23.05;;;7.00;70.70;;;;;;5031054;28;20029;-62
2023/02/11 12:15:56;;;;;;;45.33;24.80;;;7.10;71.30;;;;;;5034036;28;20488;-59
2023/02/11 12:18:34;;;;;;;42.05;23.85;;;7.10;71.30;;;;;;5034613;28;20456;-60
2023/02/11 12:21:32;;;;;;;40.22;23.17;;;7.10;71.40;;;;;;5032779;28;20536;-62
2023/02/11 12:24:12;;;;;;;40.78;23.80;;;7.20;71.50;;;;;;5034700;28;20095;-60
2023/02/11 12:26:59;;;;;;;38.78;23.50;;;7.20;71.80;;;;;;5036947;28;20033;-61
2023/02/11 12:30:02;;;;;;;35.95;21.52;;;7.20;71.80;;;;;;5030488;28;21019;-62
2023/02/11 12:32:39;;;;;;;30.10;17.92;;;7.30;70.00;;;;;;5029644;28;20092;-59
2023/02/11 12:35:14;;;;;;;36.20;20.83;;;7.30;69.90;;;;;;5033632;28;20053;-62
2023/02/11 12:38:10;;;;;;;41.17;22.52;;;7.40;70.40;;;;;;5033741;28;20048;-61
2023/02/11 12:40:44;;;;;;;35.75;21.02;;;7.50;69.40;;;;;;5029773;28;20037;-63
2023/02/11 12:43:31;;;;;;;36.33;20.48;;;7.60;70.00;;;;;;5031581;28;20079;-61
2023/02/11 12:45:59;;;;;;;32.90;20.20;;;7.70;69.90;;;;;;5033145;28;20069;-61
2023/02/11 12:48:34;;;;;;;37.92;23.30;;;7.80;70.00;;;;;;5034374;28;20412;-62
2023/02/11 12:51:06;;;;;;;33.90;20.25;;;7.90;68.60;;;;;;5031143;28;20124;-62
2023/02/11 12:53:52;;;;;;;31.10;19.30;;;7.90;68.80;;;;;;5037932;28;20519;-62
2023/02/11 12:56:51;;;;;;;32.80;19.83;;;8.00;68.50;;;;;;5033184;28;20500;-61
2023/02/11 12:59:37;;;;;;;30.42;18.70;;;8.10;67.30;;;;;;5028530;28;20045;-60